Time;durP1;ratioP1;P1;durP2;ratioP2;P2;SDS_P1;SDS_P2;PMS_P1;PMS_P2;Temp;Humidity;BMP_temperature;BMP_pressure;BME280_temperature;BME280_humidity;BME280_pressure;Samples;Min_cycle;Max_cycle;Signal;HPM_P1;HPM_P2
2021/06/18 00:00:25;;;;;;;;;12.25;11.25;;;;;25.40;58.31;100596.38;5088881;27;45449;-49
2021/06/18 00:02:50;;;;;;;;;9.00;8.25;;;;;25.38;58.35;100592.91;5088642;27;46435;-51
2021/06/18 00:05:17;;;;;;;;;10.50;10.00;;;;;25.37;58.61;100587.63;5095024;27;45621;-48
2021/06/18 00:07:44;;;;;;;;;10.00;10.00;;;;;25.34;58.62;100585.19;5097523;27;45439;-52
2021/06/18 00:10:11;;;;;;;;;26.50;24.00;;;;;25.32;58.53;100590.75;5093884;27;45432;-48
2021/06/18 00:12:37;;;;;;;;;14.50;14.25;;;;;25.33;58.67;100586.16;5087923;27;48115;-52
2021/06/18 00:15:05;;;;;;;;;12.50;12.25;;;;;25.33;58.68;100581.59;5092447;27;45454;-50
2021/06/18 00:17:31;;;;;;;;;9.00;9.00;;;;;25.35;58.63;100573.31;5094551;27;45411;-49
2021/06/18 00:19:57;;;;;;;;;8.75;8.75;;;;;25.38;58.71;100565.75;5088853;27;45786;-50
2021/06/18 00:22:22;;;;;;;;;13.25;10.50;;;;;25.42;58.81;100574.53;5084636;27;47231;-49
2021/06/18 00:24:48;;;;;;;;;9.25;9.25;;;;;25.44;58.83;100577.97;5094293;27;46020;-49
2021/06/18 00:27:13;;;;;;;;;8.50;8.50;;;;;25.43;58.28;100577.09;5095302;27;47550;-53
2021/06/18 00:29:39;;;;;;;;;9.00;9.00;;;;;25.39;58.60;100575.63;5096531;27;45955;-47
2021/06/18 00:32:05;;;;;;;;;11.00;9.50;;;;;25.37;58.99;100572.19;5084484;27;47346;-48
2021/06/18 00:34:30;;;;;;;;;8.75;8.25;;;;;25.35;58.55;100568.75;5093223;27;45541;-51
2021/06/18 00:36:56;;;;;;;;;7.50;7.50;;;;;25.35;59.13;100573.31;5096772;27;45694;-48
2021/06/18 00:39:21;;;;;;;;;8.25;8.25;;;;;25.34;59.03;100582.47;5098156;27;45697;-50
2021/06/18 00:41:47;;;;;;;;;9.00;9.00;;;;;25.31;58.73;100567.28;5085129;27;47560;-51
2021/06/18 00:44:13;;;;;;;;;7.00;6.50;;;;;25.29;58.87;100563.84;5091632;27;45897;-50
2021/06/18 00:46:39;;;;;;;;;6.25;6.25;;;;;25.29;58.62;100563.00;5101951;27;45490;-51
2021/06/18 00:49:06;;;;;;;;;7.25;7.00;;;;;25.28;59.03;100561.22;5090101;27;45543;-50
2021/06/18 00:51:33;;;;;;;;;7.50;7.50;;;;;25.27;58.97;100565.81;5089472;27;47045;-51
2021/06/18 00:53:58;;;;;;;;;8.50;8.50;;;;;25.26;59.15;100557.78;5084401;27;45331;-48
2021/06/18 00:56:24;;;;;;;;;7.25;7.25;;;;;25.28;59.05;100569.38;5088986;27;45384;-48
2021/06/18 00:58:51;;;;;;;;;7.50;7.50;;;;;25.30;59.26;100565.56;5092296;27;45712;-51
2021/06/18 01:01:17;;;;;;;;;6.75;6.25;;;;;25.29;59.50;100566.56;5093561;27;48181;-50
2021/06/18 01:03:42;;;;;;;;;5.75;5.75;;;;;25.30;58.79;100568.28;5086044;27;45271;-50
2021/06/18 01:06:12;;;;;;;;;7.00;6.50;;;;;25.28;59.04;100562.09;5094094;27;45404;-51
2021/06/18 01:08:46;;;;;;;;;6.00;6.00;;;;;25.27;59.03;100554.94;5087548;27;45465;-47
2021/06/18 01:11:26;;;;;;;;;7.00;7.00;;;;;25.25;59.20;100543.34;5093768;27;46194;-48
2021/06/18 01:14:17;;;;;;;;;8.00;7.25;;;;;25.26;59.07;100557.78;5088066;27;45479;-47
2021/06/18 01:16:45;;;;;;;;;5.00;5.00;;;;;25.27;59.46;100564.94;5095449;27;45354;-54
2021/06/18 01:19:19;;;;;;;;;9.00;7.50;;;;;25.28;59.58;100566.66;5087422;27;45940;-47
2021/06/18 01:21:54;;;;;;;;;7.25;7.25;;;;;25.27;58.89;100549.50;5089636;27;47207;-49
2021/06/18 01:24:33;;;;;;;;;6.00;6.00;;;;;25.24;59.02;100553.34;5088756;27;45500;-49
2021/06/18 01:27:15;;;;;;;;;6.75;5.50;;;;;25.22;59.32;100554.50;5086449;27;45381;-52
2021/06/18 01:29:49;;;;;;;;;7.00;7.00;;;;;25.21;59.13;100547.34;5092249;27;45674;-51
2021/06/18 01:32:25;;;;;;;;;13.00;10.75;;;;;25.20;59.47;100551.03;5090276;27;47383;-52
2021/06/18 01:34:53;;;;;;;;;15.25;15.25;;;;;25.21;59.26;100540.06;5091462;27;45588;-50
2021/06/18 01:37:23;;;;;;;;;10.00;10.00;;;;;25.22;59.31;100527.31;5088017;27;45712;-47
2021/06/18 01:39:49;;;;;;;;;14.00;13.75;;;;;25.24;59.23;100522.63;5087250;27;45620;-52
2021/06/18 01:42:17;;;;;;;;;8.00;8.00;;;;;25.26;59.40;100527.91;5084008;27;47615;-51
2021/06/18 01:44:44;;;;;;;;;7.50;7.50;;;;;25.28;59.06;100526.78;5090953;27;45497;-51
2021/06/18 01:47:13;;;;;;;;;9.00;8.50;;;;;25.29;59.23;100525.81;5092624;27;45788;-51
2021/06/18 01:49:40;;;;;;;;;6.00;6.00;;;;;25.32;58.95;100521.97;5094734;27;45755;-50
2021/06/18 01:52:07;;;;;;;;;5.50;5.50;;;;;25.34;58.99;100518.13;5093138;27;48042;-51
2021/06/18 01:54:35;;;;;;;;;5.25;4.75;;;;;25.35;58.92;100506.25;5096004;27;45389;-49
2021/06/18 01:57:04;;;;;;;;;5.25;5.25;;;;;25.36;58.88;100501.69;5083144;27;45353;-50
2021/06/18 01:59:33;;;;;;;;;4.00;4.00;;;;;25.38;58.67;100503.28;5093348;27;45424;-52
2021/06/18 02:02:00;;;;;;;;;6.75;6.75;;;;;25.38;58.35;100492.41;5088827;27;48120;-48
2021/06/18 02:04:26;;;;;;;;;6.50;4.50;;;;;25.39;58.23;100485.97;5072136;27;45617;-53
2021/06/18 02:06:53;;;;;;;;;4.00;4.00;;;;;25.39;57.93;100491.41;5083906;27;45496;-47
2021/06/18 02:09:22;;;;;;;;;5.25;5.25;;;;;25.38;58.23;100484.25;5091013;27;45469;-50
2021/06/18 02:11:48;;;;;;;;;4.75;4.75;;;;;25.36;58.04;100486.25;5088379;27;46909;-48
2021/06/18 02:14:18;;;;;;;;;3.50;3.50;;;;;25.34;57.68;100482.81;5092111;27;45507;-50
2021/06/18 02:16:48;;;;;;;;;5.00;4.25;;;;;25.34;57.92;100490.09;5090109;27;45489;-51
2021/06/18 02:19:16;;;;;;;;;3.75;3.75;;;;;25.33;58.08;100489.25;5092068;27;45536;-53
2021/06/18 02:21:45;;;;;;;;;3.67;3.67;;;;;25.30;58.00;100485.94;5092489;27;47209;-51
2021/06/18 02:24:12;;;;;;;;;3.00;3.00;;;;;25.28;58.36;100496.91;5094274;27;46009;-51
2021/06/18 02:26:39;;;;;;;;;3.33;3.33;;;;;25.24;57.87;100490.88;5091013;27;45520;-50
2021/06/18 02:29:06;;;;;;;;;3.50;3.50;;;;;25.22;57.87;100492.88;5092763;27;45612;-49
2021/06/18 02:31:36;;;;;;;;;3.50;3.50;;;;;25.18;58.23;100491.44;5105062;27;47347;-51
2021/06/18 02:34:02;;;;;;;;;3.00;3.00;;;;;25.15;58.53;100490.81;5089642;27;45553;-47
2021/06/18 02:36:27;;;;;;;;;3.25;3.25;;;;;25.12;58.50;100481.09;5092365;27;48958;-51
2021/06/18 02:38:53;;;;;;;;;3.00;3.00;;;;;25.09;58.50;100473.22;5087860;27;45489;-51
2021/06/18 02:41:19;;;;;;;;;3.50;3.50;;;;;25.09;58.61;100470.50;5096359;27;47046;-50
2021/06/18 02:43:44;;;;;;;;;3.50;3.50;;;;;25.09;58.44;100469.63;5094784;27;45484;-51
2021/06/18 02:46:22;;;;;;;;;4.50;4.50;;;;;25.08;58.45;100457.91;5102638;27;45428;-50
2021/06/18 02:48:51;;;;;;;;;4.00;4.00;;;;;25.09;58.32;100459.63;5095252;27;45383;-51
2021/06/18 02:51:32;;;;;;;;;3.50;3.50;;;;;25.13;58.94;100471.94;5092952;27;48333;-50
2021/06/18 02:54:08;;;;;;;;;2.50;2.25;;;;;25.15;58.54;100469.94;5106329;27;45792;-48
2021/06/18 02:56:45;;;;;;;;;2.67;2.67;;;;;25.17;58.55;100467.13;5099761;27;45573;-51
2021/06/18 02:59:34;;;;;;;;;4.00;3.00;;;;;25.19;58.55;100476.84;5087524;27;45372;-50
2021/06/18 03:02:01;;;;;;;;;3.50;3.50;;;;;25.21;58.16;100472.16;5094318;27;46054;-50
2021/06/18 03:04:31;;;;;;;;;4.00;4.00;;;;;25.22;58.09;100468.44;5093645;27;45694;-49
2021/06/18 03:07:02;;;;;;;;;3.00;3.00;;;;;25.22;58.37;100473.00;5089131;27;49169;-48
2021/06/18 03:09:31;;;;;;;;;2.67;2.67;;;;;25.22;58.76;100470.28;5091445;27;45364;-48
2021/06/18 03:11:57;;;;;;;;;2.50;2.50;;;;;25.22;58.33;100471.16;5090158;27;47444;-52
2021/06/18 03:14:28;;;;;;;;;2.67;2.33;;;;;25.23;58.16;100464.72;5092914;27;45344;-49
2021/06/18 03:16:59;;;;;;;;;2.50;2.50;;;;;25.26;58.38;100454.59;5098418;27;45381;-52
2021/06/18 03:19:29;;;;;;;;;4.75;4.75;;;;;25.26;58.42;100452.72;5088904;27;45340;-50
2021/06/18 03:21:58;;;;;;;;;3.00;3.00;;;;;25.28;58.48;100458.03;5085917;27;47318;-49
2021/06/18 03:24:26;;;;;;;;;4.75;4.00;;;;;25.30;58.61;100456.91;5099186;27;45661;-52
2021/06/18 03:26:51;;;;;;;;;2.50;2.50;;;;;25.32;58.47;100452.22;5087353;27;45669;-52
2021/06/18 03:29:18;;;;;;;;;4.00;4.00;;;;;25.35;58.50;100448.34;5094961;27;45345;-53
2021/06/18 03:31:44;;;;;;;;;4.00;4.00;;;;;25.39;58.60;100453.38;5090969;27;47389;-53
2021/06/18 03:34:10;;;;;;;;;3.33;3.33;;;;;25.42;58.17;100458.56;5092775;27;49588;-48
2021/06/18 03:36:38;;;;;;;;;6.50;5.00;;;;;25.41;57.92;100475.84;5093531;27;45323;-52
2021/06/18 03:39:04;;;;;;;;;5.00;4.00;;;;;25.38;57.95;100484.25;5096037;27;45602;-48
2021/06/18 03:41:30;;;;;;;;;2.75;2.75;;;;;25.34;58.50;100504.53;5095902;27;45478;-49
2021/06/18 03:43:56;;;;;;;;;4.00;4.00;;;;;25.33;58.20;100530.00;5094464;27;45458;-49
2021/06/18 03:46:24;;;;;;;;;3.75;3.75;;;;;25.32;58.52;100536.41;5101558;27;45515;-50
2021/06/18 03:48:52;;;;;;;;;5.25;5.25;;;;;25.30;58.56;100552.00;5096827;27;45595;-55
2021/06/18 03:51:18;;;;;;;;;4.50;4.50;;;;;25.28;58.40;100534.94;5093268;27;47171;-50
2021/06/18 03:53:43;;;;;;;;;4.00;4.00;;;;;25.27;58.89;100514.19;5091931;27;45946;-51
2021/06/18 03:56:10;;;;;;;;;4.25;4.25;;;;;25.21;58.49;100509.31;5092743;27;45398;-50
2021/06/18 03:58:38;;;;;;;;;4.50;4.50;;;;;25.19;58.85;100514.88;5089893;27;45427;-47
2021/06/18 04:01:04;;;;;;;;;4.25;3.25;;;;;25.17;58.93;100514.16;5094973;27;46226;-50
2021/06/18 04:03:31;;;;;;;;;5.00;5.00;;;;;25.19;58.79;100508.59;5093936;27;46254;-51
2021/06/18 04:06:03;;;;;;;;;4.25;4.25;;;;;25.18;58.75;100496.00;5073637;27;45540;-47
2021/06/18 04:08:29;;;;;;;;;5.25;5.25;;;;;25.16;59.40;100501.56;5095598;27;45520;-48
2021/06/18 04:10:55;;;;;;;;;4.75;4.50;;;;;25.13;59.23;100495.53;5090121;27;48379;-50
2021/06/18 04:13:21;;;;;;;;;5.00;5.00;;;;;25.10;59.45;100488.50;5092875;27;45347;-52
2021/06/18 04:15:48;;;;;;;;;4.00;4.00;;;;;25.09;59.61;100489.50;5089118;27;45539;-52
2021/06/18 04:18:20;;;;;;;;;4.25;4.25;;;;;25.06;59.35;100480.78;5087550;27;45515;-48
2021/06/18 04:20:46;;;;;;;;;4.50;4.50;;;;;25.00;59.30;100481.25;5085880;27;45508;-50
2021/06/18 04:23:12;;;;;;;;;3.50;3.50;;;;;24.99;59.52;100487.66;5093326;27;45692;-51
2021/06/18 04:25:37;;;;;;;;;8.25;8.00;;;;;24.97;59.92;100482.38;5096122;27;45502;-51
2021/06/18 04:28:04;;;;;;;;;4.75;3.75;;;;;24.95;59.93;100485.22;5090623;27;45514;-49
2021/06/18 04:30:29;;;;;;;;;5.25;5.25;;;;;24.95;60.11;100487.94;5097629;27;47227;-50
2021/06/18 04:32:55;;;;;;;;;8.25;7.50;;;;;24.95;60.25;100481.66;5094975;27;45698;-50
2021/06/18 04:35:20;;;;;;;;;6.25;5.50;;;;;24.91;60.32;100481.06;5107660;27;45382;-48
2021/06/18 04:37:46;;;;;;;;;6.25;6.25;;;;;24.91;60.14;100481.06;5113113;27;46080;-52
2021/06/18 04:40:12;;;;;;;;;7.50;7.50;;;;;24.90;60.29;100475.72;5091836;27;47057;-48
2021/06/18 04:42:37;;;;;;;;;6.25;4.75;;;;;24.90;60.78;100471.19;5092608;27;45646;-52
2021/06/18 04:45:04;;;;;;;;;5.50;5.50;;;;;24.94;60.39;100459.06;5095401;27;46498;-51
2021/06/18 04:47:30;;;;;;;;;7.50;7.50;;;;;24.97;60.43;100467.94;5104842;27;45448;-52
2021/06/18 04:49:55;;;;;;;;;6.75;6.75;;;;;25.00;60.44;100460.38;5085861;27;47774;-52
2021/06/18 04:52:21;;;;;;;;;7.25;7.25;;;;;25.01;60.56;100459.41;5091303;27;45763;-50
2021/06/18 04:54:53;;;;;;;;;8.00;8.00;;;;;25.01;60.70;100453.13;5090925;27;45572;-49
2021/06/18 04:57:19;;;;;;;;;5.50;5.50;;;;;25.01;60.48;100448.56;5084592;27;45409;-48
2021/06/18 04:59:44;;;;;;;;;5.25;5.25;;;;;25.02;60.33;100444.00;5087231;27;48075;-51
2021/06/18 05:02:09;;;;;;;;;8.00;8.00;;;;;25.01;60.51;100454.00;5086850;27;45719;-51
2021/06/18 05:04:35;;;;;;;;;9.75;8.00;;;;;25.03;60.33;100467.44;5088809;27;45473;-51
2021/06/18 05:07:00;;;;;;;;;5.75;5.75;;;;;25.05;60.57;100455.47;5091183;27;45656;-48
2021/06/18 05:09:26;;;;;;;;;7.50;7.00;;;;;25.08;60.61;100455.19;5092747;27;47159;-48
2021/06/18 05:11:51;;;;;;;;;6.75;6.75;;;;;25.13;60.53;100460.22;5085054;27;45824;-49
2021/06/18 05:14:17;;;;;;;;;9.00;9.00;;;;;25.19;60.91;100455.13;5094376;27;45602;-50
2021/06/18 05:16:42;;;;;;;;;8.00;8.00;;;;;25.26;60.44;100460.00;5088060;27;45757;-50
2021/06/18 05:19:09;;;;;;;;;5.50;5.50;;;;;25.30;60.52;100466.94;5083656;27;45376;-52
2021/06/18 05:21:35;;;;;;;;;5.00;5.00;;;;;25.32;60.45;100456.78;5100817;27;45477;-51
2021/06/18 05:24:01;;;;;;;;;7.50;7.50;;;;;25.35;60.33;100461.94;5090389;27;45417;-52
2021/06/18 05:26:29;;;;;;;;;6.50;6.50;;;;;25.38;60.20;100461.66;5085017;27;45542;-49
2021/06/18 05:28:55;;;;;;;;;10.50;9.50;;;;;25.39;59.97;100453.38;5090154;27;48037;-51
2021/06/18 05:31:20;;;;;;;;;8.50;8.50;;;;;25.40;60.26;100465.09;5093091;27;45542;-52
2021/06/18 05:33:46;;;;;;;;;8.00;8.00;;;;;25.38;60.06;100458.94;5090743;27;45444;-51
2021/06/18 05:36:11;;;;;;;;;7.50;7.50;;;;;25.38;59.81;100461.66;5089683;27;45845;-52
2021/06/18 05:38:37;;;;;;;;;8.50;7.50;;;;;25.41;60.28;100461.38;5089877;27;47437;-51
2021/06/18 05:41:02;;;;;;;;;8.50;8.50;;;;;25.45;60.27;100461.00;5089241;27;45486;-52
2021/06/18 05:43:28;;;;;;;;;9.50;9.50;;;;;25.48;60.13;100463.44;5092583;27;45665;-58
2021/06/18 05:45:53;;;;;;;;;8.25;7.75;;;;;25.52;59.87;100453.16;5091696;27;45458;-51
2021/06/18 05:48:19;;;;;;;;;11.50;10.25;;;;;25.56;59.81;100457.34;5096836;27;45466;-51
2021/06/18 05:50:44;;;;;;;;;8.25;7.75;;;;;25.61;59.69;100459.63;5087745;27;45800;-48
2021/06/18 05:53:10;;;;;;;;;12.00;10.00;;;;;25.65;60.00;100459.22;5092757;27;45327;-48
2021/06/18 05:55:35;;;;;;;;;7.50;7.50;;;;;25.70;59.80;100459.72;5108048;27;45736;-52
2021/06/18 05:58:01;;;;;;;;;7.25;6.25;;;;;25.75;59.45;100456.59;5090617;27;47769;-49
2021/06/18 06:00:26;;;;;;;;;9.75;9.50;;;;;25.79;59.12;100447.16;5087974;27;45489;-52
2021/06/18 06:02:52;;;;;;;;;9.50;9.50;;;;;25.83;59.81;100454.06;5086010;27;45597;-49
2021/06/18 06:05:17;;;;;;;;;7.50;7.25;;;;;25.87;59.45;100446.47;5092769;27;45502;-48
2021/06/18 06:07:47;;;;;;;;;8.25;8.25;;;;;25.89;58.81;100458.06;5090012;27;47249;-48
2021/06/18 06:10:14;;;;;;;;;6.50;6.50;;;;;25.87;58.60;100454.63;5089584;27;45418;-52
2021/06/18 06:12:41;;;;;;;;;11.25;9.50;;;;;25.86;58.72;100469.22;5082086;27;45723;-46
2021/06/18 06:15:07;;;;;;;;;9.00;9.00;;;;;25.84;58.57;100469.38;5088160;27;46040;-50
2021/06/18 06:17:32;;;;;;;;;8.00;8.00;;;;;25.83;58.91;100474.94;5095869;27;47747;-51
2021/06/18 06:19:58;;;;;;;;;10.00;9.00;;;;;25.81;58.95;100472.38;5083923;27;46042;-50
2021/06/18 06:22:23;;;;;;;;;9.00;7.50;;;;;25.80;58.69;100473.38;5084400;27;46716;-48
2021/06/18 06:24:49;;;;;;;;;8.75;8.75;;;;;25.79;58.34;100477.06;5083624;27;45522;-53
2021/06/18 06:27:15;;;;;;;;;7.75;7.75;;;;;25.76;58.78;100475.47;5084804;27;47162;-52
2021/06/18 06:29:40;;;;;;;;;10.25;9.25;;;;;25.75;58.80;100470.19;5085406;27;46120;-52
2021/06/18 06:32:06;;;;;;;;;12.25;11.00;;;;;25.74;58.69;100468.47;5085921;27;45620;-47
2021/06/18 06:34:32;;;;;;;;;11.75;11.75;;;;;25.75;58.66;100462.88;5083778;27;45589;-53
2021/06/18 06:36:57;;;;;;;;;11.25;11.25;;;;;25.77;58.67;100465.47;5077886;27;47478;-48
2021/06/18 06:39:23;;;;;;;;;11.00;10.50;;;;;25.76;58.42;100470.03;5100835;27;45567;-48
2021/06/18 06:41:49;;;;;;;;;11.25;11.00;;;;;25.77;58.47;100465.47;5068824;28;45630;-51
2021/06/18 06:44:15;;;;;;;;;9.75;9.75;;;;;25.77;59.00;100460.03;5067979;28;45363;-49
2021/06/18 06:46:40;;;;;;;;;9.25;9.25;;;;;25.78;58.30;100470.75;5070294;27;47552;-48
2021/06/18 06:49:06;;;;;;;;;10.25;10.25;;;;;25.79;58.28;100463.47;5060150;27;45508;-44
2021/06/18 06:51:31;;;;;;;;;10.75;10.00;;;;;25.80;58.13;100460.63;5063098;28;46127;-48
2021/06/18 06:53:57;;;;;;;;;13.00;10.00;;;;;25.80;58.25;100451.63;5062124;27;45463;-51
2021/06/18 06:56:22;;;;;;;;;11.00;9.00;;;;;25.82;58.20;100460.50;5065805;28;45958;-45
2021/06/18 06:58:48;;;;;;;;;10.00;9.00;;;;;25.84;58.67;100473.94;5067409;28;45678;-45
2021/06/18 07:01:13;;;;;;;;;9.50;9.50;;;;;25.86;58.07;100480.09;5060793;27;48188;-55
2021/06/18 07:03:40;;;;;;;;;9.75;9.75;;;;;25.87;57.97;100482.69;5071782;27;45697;-49
2021/06/18 07:06:07;;;;;;;;;14.00;12.00;;;;;25.88;57.96;100468.09;5072705;28;48326;-46
2021/06/18 07:08:32;;;;;;;;;12.75;10.75;;;;;25.88;57.79;100469.94;5071027;27;45781;-46
2021/06/18 07:10:58;;;;;;;;;10.00;8.75;;;;;25.90;57.83;100478.81;5073193;27;45434;-48
2021/06/18 07:13:23;;;;;;;;;9.75;9.75;;;;;25.92;57.39;100482.25;5066870;28;45710;-48
2021/06/18 07:15:51;;;;;;;;;9.25;8.50;;;;;25.94;57.75;100475.72;5065986;27;47382;-51
2021/06/18 07:18:16;;;;;;;;;9.00;7.25;;;;;26.00;57.71;100469.69;5064188;28;45863;-47
2021/06/18 07:20:42;;;;;;;;;9.75;9.75;;;;;26.07;57.83;100484.47;5072072;28;45445;-47
2021/06/18 07:23:09;;;;;;;;;13.25;9.25;;;;;26.15;57.02;100491.06;5067085;28;45474;-48
2021/06/18 07:25:35;;;;;;;;;11.50;9.50;;;;;26.20;57.07;100480.66;5071376;27;47247;-48
2021/06/18 07:28:03;;;;;;;;;11.00;11.00;;;;;26.24;56.61;100485.66;5070280;28;46218;-51
2021/06/18 07:30:28;;;;;;;;;9.00;8.00;;;;;26.27;56.83;100493.53;5065292;28;45488;-48
2021/06/18 07:32:54;;;;;;;;;11.75;10.75;;;;;26.29;56.73;100487.94;5070749;28;45227;-50
2021/06/18 07:35:20;;;;;;;;;12.25;11.25;;;;;26.33;56.90;100489.41;5069622;28;47176;-49
2021/06/18 07:37:45;;;;;;;;;10.50;10.50;;;;;26.37;56.33;100489.00;5066924;28;45779;-50
2021/06/18 07:40:14;;;;;;;;;10.00;8.25;;;;;26.40;55.88;100482.41;5071639;27;45460;-52
2021/06/18 07:42:39;;;;;;;;;12.25;10.50;;;;;26.44;56.72;100488.47;5085692;27;45380;-48
2021/06/18 07:45:06;;;;;;;;;14.25;11.75;;;;;26.50;56.91;100496.06;5089194;27;45379;-50
2021/06/18 07:47:31;;;;;;;;;11.00;9.25;;;;;26.53;56.37;100499.34;5090828;27;45722;-53
2021/06/18 07:49:58;;;;;;;;;10.75;10.75;;;;;26.55;56.03;100499.19;5094888;27;45870;-52
2021/06/18 07:52:23;;;;;;;;;11.50;10.25;;;;;26.59;56.12;100493.34;5092572;27;45885;-53
2021/06/18 07:54:53;;;;;;;;;10.00;10.00;;;;;26.66;56.39;100488.19;5088687;27;47859;-52
2021/06/18 07:57:19;;;;;;;;;9.00;9.00;;;;;26.74;55.92;100487.47;5090147;27;45525;-50
2021/06/18 07:59:44;;;;;;;;;9.50;8.50;;;;;26.80;56.10;100498.66;5087978;27;45337;-48
2021/06/18 08:02:10;;;;;;;;;9.75;9.75;;;;;26.89;55.74;100497.78;5069546;27;45496;-53
2021/06/18 08:04:35;;;;;;;;;8.50;8.50;;;;;26.98;55.25;100482.47;5088222;27;47837;-49
2021/06/18 08:07:01;;;;;;;;;8.50;8.50;;;;;27.07;54.88;100484.38;5089242;27;45759;-50
2021/06/18 08:09:26;;;;;;;;;7.00;7.00;;;;;27.11;55.23;100488.50;5088619;27;45272;-49
2021/06/18 08:11:52;;;;;;;;;8.00;8.00;;;;;27.14;54.65;100488.22;5087740;27;45636;-53
2021/06/18 08:14:18;;;;;;;;;10.00;8.75;;;;;27.15;54.04;100484.47;5092862;27;47141;-54
2021/06/18 08:16:44;;;;;;;;;11.00;8.00;;;;;27.17;53.88;100479.75;5086736;27;45515;-48
2021/06/18 08:19:10;;;;;;;;;11.00;10.25;;;;;27.19;53.83;100476.91;5082958;27;45417;-51
2021/06/18 08:21:35;;;;;;;;;7.00;7.00;;;;;27.22;54.29;100482.03;5087702;27;45411;-48
2021/06/18 08:24:01;;;;;;;;;5.50;5.50;;;;;27.25;53.47;100479.88;5085088;27;45437;-53
2021/06/18 08:26:26;;;;;;;;;8.00;7.75;;;;;27.28;53.14;100479.56;5087016;27;45450;-50
2021/06/18 08:28:51;;;;;;;;;8.50;6.00;;;;;27.32;53.05;100482.03;5094779;27;46501;-53
2021/06/18 08:31:17;;;;;;;;;6.75;6.00;;;;;27.34;52.60;100469.13;5087282;27;45798;-59
2021/06/18 08:33:43;;;;;;;;;5.75;5.75;;;;;27.34;52.45;100471.84;5092052;27;47172;-58
2021/06/18 08:36:08;;;;;;;;;7.00;7.00;;;;;27.31;52.18;100469.38;5083722;27;46100;-58
2021/06/18 08:38:35;;;;;;;;;5.00;5.00;;;;;27.26;52.62;100469.84;5085518;27;45536;-56
2021/06/18 08:41:04;;;;;;;;;5.00;5.00;;;;;27.19;52.11;100469.59;5093088;27;45416;-59
2021/06/18 08:43:32;;;;;;;;;5.50;5.50;;;;;27.08;52.27;100466.16;5081800;27;48176;-55
2021/06/18 08:46:00;;;;;;;;;5.75;5.75;;;;;27.00;52.25;100458.66;5089269;27;45463;-51
2021/06/18 08:48:27;;;;;;;;;5.75;5.75;;;;;26.94;52.28;100462.00;5085065;27;45580;-51
2021/06/18 08:50:52;;;;;;;;;8.75;7.25;;;;;26.89;52.54;100465.13;5081585;27;45493;-51
2021/06/18 08:53:18;;;;;;;;;5.75;5.75;;;;;26.85;51.97;100468.28;5081314;27;47259;-51
2021/06/18 08:55:44;;;;;;;;;6.50;6.50;;;;;26.82;52.20;100457.69;5087970;27;45768;-54
2021/06/18 08:58:10;;;;;;;;;8.00;7.00;;;;;26.80;52.27;100462.41;5088150;27;45779;-51
2021/06/18 09:00:36;;;;;;;;;8.50;8.25;;;;;26.78;52.49;100467.13;5087538;27;45437;-50
2021/06/18 09:03:35;;;;;;;;;6.00;6.00;;;;;26.75;52.48;100468.28;5086874;27;48515;-52
2021/06/18 09:06:23;;;;;;;;;6.00;5.50;;;;;26.73;52.60;100480.31;5087380;27;45519;-52
2021/06/18 09:09:24;;;;;;;;;7.00;7.00;;;;;26.71;51.99;100476.88;5085623;27;45478;-53
2021/06/18 09:11:57;;;;;;;;;5.00;5.00;;;;;26.71;52.44;100474.16;5086896;27;45597;-51
2021/06/18 09:14:41;;;;;;;;;7.25;7.25;;;;;26.70;52.14;100476.03;5088878;27;45385;-52
2021/06/18 09:17:18;;;;;;;;;10.00;9.00;;;;;26.69;51.93;100479.75;5092253;27;45970;-52
2021/06/18 09:19:52;;;;;;;;;7.75;6.75;;;;;26.67;52.29;100476.28;5093269;27;45766;-53
2021/06/18 09:22:24;;;;;;;;;8.25;8.00;;;;;26.67;52.13;100482.59;5084830;27;45799;-54
2021/06/18 09:25:11;;;;;;;;;6.50;6.50;;;;;26.68;52.39;100469.88;5094101;27;47788;-50
2021/06/18 09:27:40;;;;;;;;;9.50;9.00;;;;;26.68;52.12;100478.91;5085380;27;45407;-55
2021/06/18 09:30:19;;;;;;;;;8.75;7.75;;;;;26.68;52.34;100472.59;5092204;27;45767;-54
2021/06/18 09:32:56;;;;;;;;;8.75;8.25;;;;;26.71;51.70;100483.19;5085575;27;45446;-49
2021/06/18 09:35:22;;;;;;;;;11.75;9.25;;;;;26.71;51.99;100471.44;5085665;27;45468;-53
2021/06/18 09:37:58;;;;;;;;;7.75;7.75;;;;;26.74;52.46;100477.44;5089387;27;45560;-53
2021/06/18 09:40:25;;;;;;;;;8.50;8.50;;;;;26.78;51.82;100469.84;5091114;27;45891;-51
2021/06/18 09:43:06;;;;;;;;;8.75;7.00;;;;;26.82;52.04;100479.47;5088634;27;45737;-47
2021/06/18 09:45:37;;;;;;;;;10.00;7.75;;;;;26.89;52.09;100483.31;5088155;27;47098;-54
2021/06/18 09:48:13;;;;;;;;;9.25;9.00;;;;;26.95;52.64;100480.91;5088882;27;45388;-51
2021/06/18 09:50:44;;;;;;;;;7.00;7.00;;;;;27.08;51.53;100491.53;5089771;27;45651;-51
2021/06/18 09:53:16;;;;;;;;;8.25;8.25;;;;;27.15;51.56;100481.75;5085181;27;45356;-51
2021/06/18 09:55:45;;;;;;;;;8.75;8.75;;;;;27.21;51.71;100489.34;5086504;27;47197;-51
2021/06/18 09:58:12;;;;;;;;;6.50;6.00;;;;;27.30;51.74;100479.44;5084205;27;45376;-50
2021/06/18 10:00:38;;;;;;;;;6.75;6.50;;;;;27.39;51.67;100483.16;5088003;27;45461;-47
2021/06/18 10:03:09;;;;;;;;;7.00;7.00;;;;;27.42;51.00;100485.56;5088787;27;45834;-51
2021/06/18 10:05:37;;;;;;;;;8.25;8.25;;;;;27.44;50.69;100487.16;5086831;27;47271;-53
2021/06/18 10:08:03;;;;;;;;;8.00;8.00;;;;;27.49;50.83;100489.44;5090057;27;46192;-50
2021/06/18 10:10:31;;;;;;;;;8.25;8.25;;;;;27.50;50.38;100496.59;5083970;27;45624;-52
2021/06/18 10:12:58;;;;;;;;;6.25;6.25;;;;;27.48;50.17;100501.34;5086153;27;45580;-53
2021/06/18 10:15:30;;;;;;;;;7.50;4.50;;;;;27.45;50.07;100507.09;5086763;27;47031;-49
2021/06/18 10:17:58;;;;;;;;;4.75;4.75;;;;;27.45;49.97;100509.84;5084577;27;45764;-49
2021/06/18 10:20:26;;;;;;;;;5.00;3.75;;;;;27.50;49.54;100507.50;5092612;27;45388;-48
2021/06/18 10:23:06;;;;;;;;;7.50;7.50;;;;;27.55;49.11;100497.00;5089756;27;45643;-51
2021/06/18 10:25:36;;;;;;;;;5.25;5.25;;;;;27.62;49.59;100506.34;5087684;27;48330;-48
2021/06/18 10:28:08;;;;;;;;;4.25;4.25;;;;;27.64;49.17;100504.34;5082587;27;45441;-49
2021/06/18 10:30:55;;;;;;;;;7.00;5.75;;;;;27.61;49.33;100504.63;5085327;27;45695;-50
2021/06/18 10:33:29;;;;;;;;;4.00;3.00;;;;;27.56;48.82;100502.31;5086883;27;45324;-52
2021/06/18 10:35:59;;;;;;;;;6.75;6.75;;;;;27.54;48.72;100501.59;5085689;27;45517;-52
2021/06/18 10:38:26;;;;;;;;;5.00;5.00;;;;;27.63;48.84;100496.28;5092891;27;46175;-54
2021/06/18 10:40:53;;;;;;;;;4.50;4.50;;;;;27.64;48.19;100508.91;5090009;27;45721;-49
2021/06/18 10:43:19;;;;;;;;;6.25;4.25;;;;;27.64;48.65;100508.91;5092466;27;45475;-50
2021/06/18 10:46:00;;;;;;;;;3.75;3.75;;;;;27.63;48.00;100516.22;5092250;27;47973;-52
2021/06/18 10:48:44;;;;;;;;;4.00;4.00;;;;;27.62;48.45;100513.66;5092866;27;45884;-50
2021/06/18 10:51:25;;;;;;;;;3.75;3.00;;;;;27.61;47.80;100515.53;5090410;27;45519;-47
2021/06/18 10:53:55;;;;;;;;;4.00;4.00;;;;;27.65;48.29;100516.09;5087114;27;45672;-51
2021/06/18 10:56:47;;;;;;;;;4.00;3.00;;;;;27.64;48.12;100512.53;5091062;27;46391;-49
2021/06/18 10:59:15;;;;;;;;;6.25;5.25;;;;;27.62;47.91;100519.09;5080091;27;45460;-49
2021/06/18 11:01:41;;;;;;;;;3.50;3.50;;;;;27.65;47.77;100516.09;5091750;27;45494;-48
2021/06/18 11:04:07;;;;;;;;;4.25;4.25;;;;;27.70;47.99;100516.53;5092079;27;47927;-51
2021/06/18 11:06:47;;;;;;;;;4.25;4.25;;;;;27.76;48.04;100535.03;5086914;27;47534;-52
2021/06/18 11:09:43;;;;;;;;;7.00;5.00;;;;;27.74;47.59;100532.44;5092056;27;45520;-52
2021/06/18 11:12:25;;;;;;;;;4.25;4.25;;;;;27.69;47.18;100528.44;5102126;27;45497;-53
2021/06/18 11:14:54;;;;;;;;;6.00;4.50;;;;;27.66;47.43;100529.59;5096356;27;45437;-49
2021/06/18 11:17:48;;;;;;;;;2.50;2.50;;;;;27.63;47.34;100529.84;5084630;27;47036;-51
2021/06/18 11:20:16;;;;;;;;;6.00;6.00;;;;;27.63;47.42;100520.81;5090604;27;46015;-51
2021/06/18 11:22:55;;;;;;;;;2.50;2.50;;;;;27.67;46.99;100516.81;5087881;27;45442;-47
2021/06/18 11:25:36;;;;;;;;;2.75;2.75;;;;;27.73;46.78;100528.00;5090099;27;45533;-51
2021/06/18 11:28:23;;;;;;;;;2.75;2.75;;;;;27.74;47.10;100531.59;5085757;27;46979;-50